Ashley, Michigan
Current Conditions -  °F | °C
As of 9:51 AM on Wednesday 26 Nov 2014 (Local Time) from KAMN Reporting Station
Overcast Overcast  
Wind Chill: -2°   Ceiling: 2700
Heat Index: -2°   Visibility: 10mi
Dew Point: -5°   Wind: 3mph
Humidity: 77%   Direction: 110°ESE
Pressure: 30.18"   Gusts: NA
Location:  43.19°N, 84.47°W
Report Text: KAMN 261451Z AUTO 11003KT 10SM OVC027 M02/M05 A3018 RMK AO2 T10171053
Loading
Personal Weather Stations






























Interactive Weather Map New forecast layout! Learn more

10-Day Weather Forecast

Advertisements
Track Severe Weather on mobile